createdAt,value
2023-10-19T00:02:16.765Z,95.55
2023-10-19T00:04:47.591Z,97.52
2023-10-19T00:07:17.408Z,97.12
2023-10-19T00:09:49.185Z,96.63
2023-10-19T00:12:17.711Z,95.77
2023-10-19T00:14:47.949Z,95.27
2023-10-19T00:17:16.183Z,94.79
2023-10-19T00:19:59.096Z,94.73
2023-10-19T00:22:27.357Z,95.06
2023-10-19T00:24:55.550Z,95.02
2023-10-19T00:27:24.803Z,94.55
2023-10-19T00:29:56.761Z,94.67
2023-10-19T00:32:26.424Z,94.88
2023-10-19T00:34:55.021Z,94.79
2023-10-19T00:37:27.627Z,94.36
2023-10-19T00:39:57.395Z,94.21
2023-10-19T00:42:31.447Z,93.94
2023-10-19T00:45:05.992Z,93.49
2023-10-19T00:47:41.446Z,93.26
2023-10-19T00:50:20.978Z,93.01
2023-10-19T00:52:51.380Z,93.70
2023-10-19T00:55:22.799Z,93.80
2023-10-19T00:57:55.649Z,93.63
2023-10-19T01:00:35.600Z,94.41
2023-10-19T01:03:06.564Z,94.82
2023-10-19T01:05:38.193Z,94.86
2023-10-19T01:08:16.252Z,94.63
2023-10-19T01:10:46.878Z,93.57
2023-10-19T01:13:17.857Z,93.63
2023-10-19T01:15:50.786Z,93.73
2023-10-19T01:18:19.556Z,94.28
2023-10-19T01:20:52.939Z,94.01
2023-10-19T01:23:27.346Z,93.92
2023-10-19T01:26:08.649Z,94.77
2023-10-19T01:28:45.180Z,95.17
2023-10-19T01:31:19.032Z,94.72
2023-10-19T01:33:47.643Z,94.75
2023-10-19T01:36:28.546Z,95.21
2023-10-19T01:39:02.576Z,95.18
2023-10-19T01:41:32.375Z,94.61
2023-10-19T01:44:05.710Z,94.50
2023-10-19T01:46:35.253Z,94.06
2023-10-19T01:49:05.325Z,93.77
2023-10-19T01:51:34.697Z,93.36
2023-10-19T01:54:05.833Z,93.84
2023-10-19T01:56:35.294Z,94.09
2023-10-19T01:59:05.211Z,93.27
2023-10-19T02:01:34.248Z,94.03
2023-10-19T02:04:06.961Z,94.48
2023-10-19T02:06:37.939Z,93.98
2023-10-19T02:09:18.652Z,93.54
2023-10-19T02:11:48.775Z,93.02
2023-10-19T02:14:17.649Z,93.29
2023-10-19T02:16:48.269Z,93.43
2023-10-19T02:19:16.229Z,93.42
2023-10-19T02:21:44.598Z,94.23
2023-10-19T02:24:15.695Z,93.62
2023-10-19T02:26:45.496Z,93.55
2023-10-19T02:29:13.814Z,94.16
2023-10-19T02:31:43.160Z,94.17
2023-10-19T02:34:12.466Z,94.53
2023-10-19T02:36:41.750Z,94.55
2023-10-19T02:39:11.132Z,93.68
2023-10-19T02:41:42.490Z,93.85
2023-10-19T02:44:23.569Z,94.18
2023-10-19T02:46:55.252Z,94.10
2023-10-19T02:49:23.929Z,95.22
2023-10-19T02:51:54.472Z,94.61
2023-10-19T02:54:24.446Z,95.04
2023-10-19T02:56:55.356Z,95.10
2023-10-19T02:59:24.705Z,94.65
2023-10-19T03:02:02.138Z,95.03
2023-10-19T03:04:31.099Z,94.92
2023-10-19T03:06:59.967Z,95.14
2023-10-19T03:09:31.130Z,94.84
2023-10-19T03:12:04.837Z,94.51
2023-10-19T03:14:33.576Z,94.26
2023-10-19T03:17:04.060Z,94.75
2023-10-19T03:19:31.622Z,93.95
2023-10-19T03:22:01.684Z,94.31
2023-10-19T03:24:38.264Z,94.20
2023-10-19T03:27:14.464Z,93.77
2023-10-19T03:29:47.569Z,93.97
2023-10-19T03:32:17.491Z,93.86
2023-10-19T03:34:49.420Z,93.48
2023-10-19T03:37:21.004Z,93.61
2023-10-19T03:39:52.685Z,93.59
2023-10-19T03:42:23.331Z,93.85
2023-10-19T03:44:54.993Z,96.21
2023-10-19T03:47:27.413Z,99.41
2023-10-19T03:49:56.135Z,99.79
2023-10-19T03:52:24.767Z,99.57
2023-10-19T03:54:54.478Z,99.83
2023-10-19T03:57:26.356Z,99.07
2023-10-19T03:59:58.161Z,98.91
2023-10-19T04:02:30.364Z,99.95
2023-10-19T04:04:59.633Z,99.04
2023-10-19T04:07:28.638Z,98.97
2023-10-19T04:10:11.066Z,98.68
2023-10-19T04:12:43.719Z,97.81
2023-10-19T04:15:15.967Z,98.02
2023-10-19T04:17:45.727Z,97.87
2023-10-19T04:20:30.455Z,99.12
2023-10-19T04:23:00.142Z,98.80
2023-10-19T04:25:30.834Z,98.53
2023-10-19T04:28:02.242Z,98.08
2023-10-19T04:30:34.361Z,98.45
2023-10-19T04:33:03.119Z,98.19
2023-10-19T04:35:33.548Z,97.38
2023-10-19T04:38:02.755Z,97.17
2023-10-19T04:40:31.562Z,97.48
2023-10-19T04:43:01.269Z,97.09
2023-10-19T04:45:31.045Z,97.13
2023-10-19T04:47:59.661Z,99.52
2023-10-19T04:50:28.163Z,99.23
2023-10-19T04:52:56.594Z,100.00
2023-10-19T04:55:25.767Z,99.16
2023-10-19T04:57:54.046Z,99.53
2023-10-19T05:00:25.917Z,99.16
2023-10-19T05:02:54.469Z,99.28
2023-10-19T05:05:23.132Z,98.31
2023-10-19T05:07:53.406Z,98.14
2023-10-19T05:10:22.026Z,97.64
2023-10-19T05:12:50.314Z,98.72
2023-10-19T05:15:19.778Z,99.60
2023-10-19T05:17:49.625Z,100.00
2023-10-19T05:20:18.320Z,100.00
2023-10-19T05:22:46.578Z,100.00
2023-10-19T05:25:15.266Z,100.00
2023-10-19T05:27:47.031Z,100.00
2023-10-19T05:30:16.302Z,100.00
2023-10-19T05:32:44.994Z,100.00
2023-10-19T05:35:23.950Z,100.00
2023-10-19T05:37:52.296Z,100.00
2023-10-19T05:40:21.193Z,100.00
2023-10-19T05:42:49.477Z,100.00
2023-10-19T05:45:18.796Z,100.00
2023-10-19T05:47:47.201Z,100.00
2023-10-19T05:50:17.301Z,100.00
2023-10-19T05:52:46.178Z,100.00
2023-10-19T05:55:14.807Z,100.00
2023-10-19T05:57:43.508Z,100.00
2023-10-19T06:00:15.245Z,100.00
2023-10-19T06:02:48.145Z,100.00
2023-10-19T06:05:18.866Z,100.00
2023-10-19T06:07:48.290Z,100.00
2023-10-19T06:10:18.802Z,100.00
2023-10-19T06:12:47.694Z,100.00
2023-10-19T06:15:17.339Z,100.00
2023-10-19T06:17:47.323Z,100.00
2023-10-19T06:20:27.737Z,100.00
2023-10-19T06:22:58.310Z,100.00
2023-10-19T06:25:27.213Z,100.00
2023-10-19T06:27:58.808Z,100.00
2023-10-19T06:30:28.942Z,100.00
2023-10-19T06:33:02.211Z,100.00
2023-10-19T06:35:34.056Z,100.00
2023-10-19T06:38:04.949Z,100.00
2023-10-19T06:40:37.473Z,100.00
2023-10-19T06:43:06.868Z,99.56
2023-10-19T06:45:35.998Z,99.52
2023-10-19T06:48:05.349Z,98.49
2023-10-19T06:50:37.363Z,99.02
2023-10-19T06:53:07.139Z,98.26
2023-10-19T06:55:36.223Z,97.85
2023-10-19T06:58:05.908Z,97.41
2023-10-19T07:00:35.582Z,97.39
2023-10-19T07:03:04.526Z,96.24
2023-10-19T07:05:33.359Z,95.95
2023-10-19T07:08:03.859Z,94.45
2023-10-19T07:10:33.501Z,94.35
2023-10-19T07:13:01.794Z,94.18
2023-10-19T07:15:31.495Z,93.65
2023-10-19T07:18:00.419Z,92.78
2023-10-19T07:20:30.145Z,92.97
2023-10-19T07:23:01.110Z,92.01
2023-10-19T07:25:32.638Z,91.58
2023-10-19T07:28:01.655Z,90.98
2023-10-19T07:30:31.954Z,90.70
2023-10-19T07:33:00.813Z,89.42
2023-10-19T07:35:34.057Z,89.26
2023-10-19T07:38:05.211Z,89.49
2023-10-19T07:40:35.405Z,88.77
2023-10-19T07:43:05.079Z,87.97
2023-10-19T07:45:35.838Z,88.06
2023-10-19T07:48:08.591Z,87.52
2023-10-19T07:50:41.952Z,86.33
2023-10-19T07:53:12.203Z,86.13
2023-10-19T07:55:45.391Z,85.16
2023-10-19T07:58:14.020Z,84.22
2023-10-19T08:00:43.636Z,83.46
2023-10-19T08:03:15.020Z,83.46
2023-10-19T08:05:44.701Z,83.67
2023-10-19T08:08:14.167Z,83.90
2023-10-19T08:10:44.307Z,83.78
2023-10-19T08:13:14.038Z,82.99
2023-10-19T08:15:42.688Z,82.99
2023-10-19T08:18:13.888Z,83.21
2023-10-19T08:20:45.531Z,83.37
2023-10-19T08:23:17.868Z,82.17
2023-10-19T08:25:56.363Z,82.42
2023-10-19T08:28:25.751Z,82.35
2023-10-19T08:31:02.108Z,82.38
2023-10-19T08:33:35.246Z,82.41
2023-10-19T08:36:07.661Z,82.37
2023-10-19T08:38:36.201Z,81.74
2023-10-19T08:41:06.312Z,81.71
2023-10-19T08:43:35.261Z,80.55
2023-10-19T08:46:05.025Z,80.32
2023-10-19T08:48:38.038Z,79.88
2023-10-19T08:51:12.189Z,78.78
2023-10-19T08:53:45.778Z,77.93
2023-10-19T08:56:17.687Z,77.13
2023-10-19T08:58:47.334Z,76.02
2023-10-19T09:01:16.667Z,75.86
2023-10-19T09:03:45.314Z,76.00
2023-10-19T09:06:16.040Z,75.80
2023-10-19T09:08:48.177Z,75.32
2023-10-19T09:11:21.126Z,76.19
2023-10-19T09:13:51.317Z,76.64
2023-10-19T09:16:23.202Z,76.79
2023-10-19T09:18:52.821Z,76.84
2023-10-19T09:21:26.316Z,77.09
2023-10-19T09:23:56.126Z,77.08
2023-10-19T09:26:27.054Z,76.43
2023-10-19T09:28:56.403Z,76.32
2023-10-19T09:31:26.201Z,76.28
2023-10-19T09:33:56.726Z,75.69
2023-10-19T09:36:28.697Z,76.23
2023-10-19T09:38:59.549Z,75.52
2023-10-19T09:41:31.566Z,75.25
2023-10-19T09:44:06.236Z,74.76
2023-10-19T09:46:38.409Z,74.48
2023-10-19T09:49:08.124Z,74.70
2023-10-19T09:51:37.413Z,74.11
2023-10-19T09:54:14.167Z,74.27
2023-10-19T09:56:55.016Z,72.45
2023-10-19T09:59:31.907Z,72.10
2023-10-19T10:02:14.195Z,71.67
2023-10-19T10:04:47.016Z,71.26
2023-10-19T10:07:25.473Z,71.24
2023-10-19T10:10:06.249Z,70.90
2023-10-19T10:12:38.608Z,70.74
2023-10-19T10:15:09.485Z,70.45
2023-10-19T10:17:40.821Z,70.47
2023-10-19T10:20:32.394Z,69.82
2023-10-19T10:23:22.838Z,69.35
2023-10-19T10:25:55.164Z,68.63
2023-10-19T10:28:25.878Z,68.84
2023-10-19T10:31:22.555Z,68.21
2023-10-19T10:33:52.826Z,67.44
2023-10-19T10:36:22.060Z,67.55
2023-10-19T10:38:52.772Z,67.04
2023-10-19T10:41:26.362Z,67.72
2023-10-19T10:43:58.158Z,68.24
2023-10-19T10:46:28.444Z,69.56
2023-10-19T10:48:57.460Z,72.50
2023-10-19T10:51:27.182Z,74.35
2023-10-19T10:53:56.667Z,74.98
2023-10-19T10:56:26.491Z,75.65
2023-10-19T10:58:57.103Z,75.87
2023-10-19T11:01:32.193Z,75.00
2023-10-19T11:04:11.711Z,76.48
2023-10-19T11:06:52.564Z,77.17
2023-10-19T11:09:21.147Z,77.26
2023-10-19T11:11:50.541Z,76.94
2023-10-19T11:14:20.684Z,76.73
2023-10-19T11:16:49.114Z,75.09
2023-10-19T11:19:17.827Z,75.48
2023-10-19T11:21:59.217Z,76.40
2023-10-19T11:24:33.565Z,76.97
2023-10-19T11:27:02.011Z,75.70
2023-10-19T11:29:32.065Z,76.93
2023-10-19T11:32:01.392Z,77.60
2023-10-19T11:34:31.627Z,77.43
2023-10-19T11:37:01.603Z,76.52
2023-10-19T11:39:31.190Z,75.41
2023-10-19T11:41:59.729Z,74.97
2023-10-19T11:44:28.663Z,75.15
2023-10-19T11:46:58.715Z,74.08
2023-10-19T11:49:27.459Z,74.84
2023-10-19T11:51:56.052Z,74.81
2023-10-19T11:54:24.988Z,75.64
2023-10-19T11:56:54.374Z,75.67
2023-10-19T11:59:23.035Z,74.63
2023-10-19T12:01:51.408Z,74.07
2023-10-19T12:04:21.561Z,73.56
2023-10-19T12:06:50.029Z,72.26
2023-10-19T12:09:18.821Z,72.90
2023-10-19T12:11:48.722Z,72.88
2023-10-19T12:14:17.738Z,73.68
2023-10-19T12:16:46.667Z,73.08
2023-10-19T12:19:16.698Z,73.15
2023-10-19T12:21:46.051Z,73.71
2023-10-19T12:24:16.535Z,73.79
2023-10-19T12:26:46.197Z,74.22
2023-10-19T12:29:17.965Z,74.55
2023-10-19T12:31:51.282Z,75.01
2023-10-19T12:34:20.119Z,74.61
2023-10-19T12:36:53.331Z,74.46
2023-10-19T12:39:36.186Z,74.24
2023-10-19T12:42:05.418Z,74.77
2023-10-19T12:44:40.608Z,74.94
2023-10-19T12:47:12.095Z,76.56
2023-10-19T12:49:43.346Z,76.79
2023-10-19T12:52:16.018Z,76.66
2023-10-19T12:54:46.760Z,77.13
2023-10-19T12:57:16.200Z,77.48
2023-10-19T12:59:45.373Z,77.32
2023-10-19T13:02:16.354Z,76.52
2023-10-19T13:04:47.883Z,75.13
2023-10-19T13:07:17.818Z,75.46
2023-10-19T13:09:46.573Z,75.62
2023-10-19T13:12:14.773Z,75.81
2023-10-19T13:14:45.214Z,76.14
2023-10-19T13:17:13.682Z,76.19
2023-10-19T13:19:42.318Z,76.50
2023-10-19T13:22:10.557Z,76.24
2023-10-19T13:24:43.381Z,76.49
2023-10-19T13:27:11.763Z,76.91
2023-10-19T13:29:43.219Z,77.66
2023-10-19T13:32:12.753Z,77.89
2023-10-19T13:34:42.588Z,78.51
2023-10-19T13:37:10.677Z,78.92
2023-10-19T13:39:40.881Z,77.83
2023-10-19T13:42:10.445Z,78.11
2023-10-19T13:44:39.879Z,78.43
2023-10-19T13:47:10.300Z,77.91
2023-10-19T13:49:39.119Z,78.47
2023-10-19T13:52:10.123Z,78.77
2023-10-19T13:54:40.227Z,79.03
2023-10-19T13:57:08.418Z,79.33
2023-10-19T13:59:37.059Z,79.37
2023-10-19T14:02:05.341Z,79.45
2023-10-19T14:04:34.376Z,79.03
2023-10-19T14:07:02.655Z,79.74
2023-10-19T14:09:33.051Z,79.60
2023-10-19T14:12:05.451Z,79.19
2023-10-19T14:14:36.584Z,78.60
2023-10-19T14:17:06.915Z,78.05
2023-10-19T14:19:35.407Z,77.94
2023-10-19T14:22:03.914Z,77.81
2023-10-19T14:24:35.528Z,78.73
2023-10-19T14:27:05.365Z,78.37
2023-10-19T14:29:34.028Z,78.60
2023-10-19T14:32:17.696Z,78.14
2023-10-19T14:34:49.745Z,78.61
2023-10-19T14:37:21.524Z,78.00
2023-10-19T14:39:49.989Z,78.32
2023-10-19T14:42:19.665Z,77.92
2023-10-19T14:44:48.461Z,78.54
2023-10-19T14:47:16.690Z,78.85
2023-10-19T14:49:45.320Z,78.98
2023-10-19T14:52:13.695Z,78.42
2023-10-19T14:54:42.294Z,78.88
2023-10-19T14:57:10.504Z,78.78
2023-10-19T14:59:40.623Z,78.60
2023-10-19T15:02:13.572Z,79.23
2023-10-19T15:04:42.398Z,78.86
2023-10-19T15:07:10.702Z,78.27
2023-10-19T15:09:39.439Z,78.61
2023-10-19T15:12:09.586Z,78.79
2023-10-19T15:14:44.545Z,78.93
2023-10-19T15:17:12.957Z,79.33
2023-10-19T15:19:41.550Z,78.78
2023-10-19T15:22:10.000Z,78.28
2023-10-19T15:24:38.488Z,78.27
2023-10-19T15:27:06.698Z,77.77
2023-10-19T15:29:35.430Z,78.21
2023-10-19T15:32:05.843Z,78.51
2023-10-19T15:34:35.750Z,78.24
2023-10-19T15:37:04.200Z,78.72
2023-10-19T15:39:33.044Z,78.04
2023-10-19T15:42:04.197Z,77.99
2023-10-19T15:44:32.902Z,77.70
2023-10-19T15:47:01.709Z,77.32
2023-10-19T15:49:32.069Z,77.75
2023-10-19T15:52:00.271Z,77.46
2023-10-19T15:54:28.777Z,77.54
2023-10-19T15:56:57.082Z,78.14
2023-10-19T15:59:25.579Z,77.33
2023-10-19T16:01:53.885Z,77.80
2023-10-19T16:04:23.593Z,77.22
2023-10-19T16:06:53.032Z,77.33
2023-10-19T16:09:22.553Z,77.32
2023-10-19T16:11:52.119Z,76.66
2023-10-19T16:14:21.429Z,76.83
2023-10-19T16:16:49.888Z,76.36
2023-10-19T16:19:18.577Z,76.28
2023-10-19T16:21:47.352Z,76.59
2023-10-19T16:24:17.296Z,76.25
2023-10-19T16:26:45.881Z,76.18
2023-10-19T16:29:17.309Z,76.08
2023-10-19T16:31:47.053Z,75.76
2023-10-19T16:34:17.216Z,75.13
2023-10-19T16:36:45.548Z,75.69
2023-10-19T16:39:17.339Z,74.95
2023-10-19T16:41:47.766Z,75.34
2023-10-19T16:44:16.262Z,75.54
2023-10-19T16:46:47.199Z,75.97
2023-10-19T16:49:16.356Z,75.62
2023-10-19T16:51:44.693Z,75.61
2023-10-19T16:54:13.362Z,75.77
2023-10-19T16:56:47.606Z,76.17
2023-10-19T16:59:18.552Z,76.52
2023-10-19T17:01:46.990Z,76.34
2023-10-19T17:04:15.943Z,76.29
2023-10-19T17:06:44.363Z,76.45
2023-10-19T17:09:19.640Z,76.95
2023-10-19T17:11:48.459Z,76.70
2023-10-19T17:14:18.635Z,78.46
2023-10-19T17:16:47.215Z,78.40
2023-10-19T17:19:16.612Z,78.91
2023-10-19T17:21:45.107Z,79.29
2023-10-19T17:24:13.874Z,80.01
2023-10-19T17:26:43.072Z,80.82
2023-10-19T17:29:11.429Z,80.58
2023-10-19T17:31:41.142Z,81.50
2023-10-19T17:34:09.780Z,81.86
2023-10-19T17:36:38.059Z,81.94
2023-10-19T17:39:13.271Z,82.24
2023-10-19T17:41:43.438Z,82.74
2023-10-19T17:44:12.119Z,81.55
2023-10-19T17:46:42.746Z,81.53
2023-10-19T17:49:12.166Z,81.08
2023-10-19T17:51:40.784Z,80.13
2023-10-19T17:54:11.026Z,79.58
2023-10-19T17:56:39.404Z,80.44
2023-10-19T17:59:09.192Z,80.59
2023-10-19T18:01:37.848Z,79.10
2023-10-19T18:04:09.323Z,79.89
2023-10-19T18:06:37.865Z,79.98
2023-10-19T18:09:09.430Z,79.29
2023-10-19T18:11:38.367Z,80.22
2023-10-19T18:14:09.251Z,80.74
2023-10-19T18:16:37.565Z,80.03
2023-10-19T18:19:09.339Z,80.39
2023-10-19T18:21:38.099Z,79.62
2023-10-19T18:24:09.476Z,79.82
2023-10-19T18:26:38.870Z,80.10
2023-10-19T18:29:08.719Z,79.98
2023-10-19T18:31:37.311Z,79.79
2023-10-19T18:34:08.192Z,78.84
2023-10-19T18:36:36.617Z,78.59
2023-10-19T18:39:05.531Z,77.82
2023-10-19T18:41:34.045Z,78.31
2023-10-19T18:44:04.428Z,78.90
2023-10-19T18:46:32.854Z,78.43
2023-10-19T18:49:01.457Z,77.88
2023-10-19T18:51:31.234Z,76.92
2023-10-19T18:54:00.161Z,77.64
2023-10-19T18:56:28.828Z,77.82
2023-10-19T18:58:57.518Z,77.12
2023-10-19T19:01:26.125Z,78.01
2023-10-19T19:03:54.606Z,78.40
2023-10-19T19:06:23.221Z,78.21
2023-10-19T19:08:56.142Z,78.64
2023-10-19T19:11:24.676Z,77.92
2023-10-19T19:13:53.481Z,78.10
2023-10-19T19:16:22.432Z,77.71
2023-10-19T19:18:52.306Z,78.70
2023-10-19T19:21:24.389Z,79.20
2023-10-19T19:23:54.611Z,80.70
2023-10-19T19:26:23.157Z,81.08
2023-10-19T19:28:53.157Z,83.07
2023-10-19T19:31:22.787Z,82.68
2023-10-19T19:33:52.215Z,83.14
2023-10-19T19:36:20.999Z,84.54
2023-10-19T19:38:50.175Z,83.59
2023-10-19T19:41:19.860Z,84.90
2023-10-19T19:43:48.504Z,84.88
2023-10-19T19:46:19.190Z,85.83
2023-10-19T19:48:49.508Z,86.50
2023-10-19T19:51:19.143Z,85.99
2023-10-19T19:53:48.180Z,85.54
2023-10-19T19:56:16.567Z,85.38
2023-10-19T19:58:46.858Z,86.30
2023-10-19T20:01:15.253Z,86.24
2023-10-19T20:03:44.923Z,85.99
2023-10-19T20:06:15.897Z,86.04
2023-10-19T20:08:44.674Z,87.60
2023-10-19T20:11:20.488Z,88.15
2023-10-19T20:13:50.685Z,88.05
2023-10-19T20:16:19.105Z,89.60
2023-10-19T20:18:47.835Z,88.29
2023-10-19T20:21:17.999Z,88.63
2023-10-19T20:23:49.445Z,88.37
2023-10-19T20:26:18.012Z,88.39
2023-10-19T20:28:46.609Z,88.98
2023-10-19T20:31:16.358Z,88.91
2023-10-19T20:33:45.516Z,89.40
2023-10-19T20:36:14.798Z,89.13
2023-10-19T20:38:45.868Z,88.92
2023-10-19T20:41:14.282Z,89.28
2023-10-19T20:43:45.118Z,90.22
2023-10-19T20:46:13.585Z,90.95
2023-10-19T20:48:45.257Z,91.25
2023-10-19T20:51:17.373Z,91.40
2023-10-19T20:53:45.955Z,92.77
2023-10-19T20:56:14.370Z,93.13
2023-10-19T20:58:43.163Z,93.20
2023-10-19T21:01:13.675Z,92.97
2023-10-19T21:03:43.960Z,93.89
2023-10-19T21:06:13.456Z,93.93
2023-10-19T21:08:42.810Z,94.41
2023-10-19T21:11:18.586Z,94.16
2023-10-19T21:13:47.787Z,94.52
2023-10-19T21:16:16.940Z,95.78
2023-10-19T21:18:46.939Z,95.38
2023-10-19T21:21:15.465Z,96.02
2023-10-19T21:23:44.258Z,95.45
2023-10-19T21:26:12.951Z,96.96
2023-10-19T21:28:41.860Z,95.86
2023-10-19T21:31:11.380Z,96.54
2023-10-19T21:33:40.228Z,98.03
2023-10-19T21:36:09.848Z,98.34
2023-10-19T21:38:39.336Z,98.82
2023-10-19T21:41:07.698Z,98.35
2023-10-19T21:43:37.278Z,97.84
2023-10-19T21:46:05.646Z,97.00
2023-10-19T21:48:34.318Z,97.72
2023-10-19T21:51:02.565Z,96.75
2023-10-19T21:53:32.602Z,98.24
2023-10-19T21:56:00.951Z,97.80
2023-10-19T21:58:29.878Z,97.91
2023-10-19T22:01:01.884Z,98.01
2023-10-19T22:03:30.935Z,98.43
2023-10-19T22:05:59.799Z,97.75
2023-10-19T22:08:33.065Z,99.32
2023-10-19T22:11:01.808Z,99.46
2023-10-19T22:13:32.004Z,100.00
2023-10-19T22:16:01.049Z,99.66
2023-10-19T22:18:29.877Z,99.46
2023-10-19T22:21:01.501Z,99.57
2023-10-19T22:23:30.394Z,100.00
2023-10-19T22:26:00.224Z,99.72
2023-10-19T22:28:29.014Z,99.75
2023-10-19T22:30:57.425Z,100.00
2023-10-19T22:33:26.091Z,100.00
2023-10-19T22:35:55.646Z,100.00
2023-10-19T22:38:24.276Z,100.00
2023-10-19T22:40:52.910Z,100.00
2023-10-19T22:43:23.803Z,100.00
2023-10-19T22:45:55.357Z,99.36
2023-10-19T22:48:24.137Z,100.00
2023-10-19T22:50:52.388Z,99.45
2023-10-19T22:53:20.926Z,98.88
2023-10-19T22:55:49.284Z,99.75
2023-10-19T22:58:18.185Z,99.04
2023-10-19T23:00:48.131Z,99.82
2023-10-19T23:03:19.082Z,100.00
2023-10-19T23:05:47.923Z,99.68
2023-10-19T23:08:16.585Z,99.24
2023-10-19T23:10:46.554Z,98.53
2023-10-19T23:13:18.367Z,99.47
2023-10-19T23:15:49.531Z,98.66
2023-10-19T23:18:18.403Z,99.93
2023-10-19T23:20:53.559Z,98.70
2023-10-19T23:23:23.222Z,98.52
2023-10-19T23:25:55.827Z,98.50
2023-10-19T23:28:27.244Z,98.37
2023-10-19T23:31:02.769Z,98.17
2023-10-19T23:33:31.351Z,97.93
2023-10-19T23:35:59.644Z,98.53
2023-10-19T23:38:28.229Z,98.55
2023-10-19T23:40:57.023Z,97.93
2023-10-19T23:43:27.142Z,98.08
2023-10-19T23:45:57.074Z,98.01
2023-10-19T23:48:26.672Z,97.56
2023-10-19T23:50:55.213Z,97.38
2023-10-19T23:53:23.700Z,98.00
2023-10-19T23:55:52.688Z,98.01
2023-10-19T23:58:21.235Z,98.03
